Terminal Aerodrome Forecast
Issued by NWS

Home | Current Version | Previous Version | Text Only | Print | Product List | Glossary On
Versions: 1 2 3 4 5 6 7 8 9 10 11 12 13 14 15 16 17
000
FTUS45 KBOI 180524
TAFTWF
TAF
KTWF 180524Z 1806/1906 06006KT P6SM OVC200
     FM182100 09009KT 6SM -SN BR SCT030 OVC050
     FM190200 11008KT 4SM -SN BR SCT015 OVC025=

USA.gov is the U.S. government's official web portal to all federal, state and local government web resources and services.